createdAt,value
2022-10-06T00:01:05.473Z,5.28
2022-10-06T00:03:32.047Z,8.13
2022-10-06T00:06:02.983Z,7.93
2022-10-06T00:08:34.803Z,6.50
2022-10-06T00:11:01.583Z,7.47
2022-10-06T00:13:28.469Z,9.60
2022-10-06T00:15:55.255Z,5.07
2022-10-06T00:18:21.779Z,6.93
2022-10-06T00:20:58.946Z,6.78
2022-10-06T00:23:26.276Z,6.57
2022-10-06T00:25:52.769Z,7.32
2022-10-06T00:28:19.390Z,6.57
2022-10-06T00:30:46.850Z,5.13
2022-10-06T00:33:16.097Z,7.05
2022-10-06T00:35:46.268Z,8.52
2022-10-06T00:38:15.229Z,6.10
2022-10-06T00:40:50.083Z,9.07
2022-10-06T00:43:41.370Z,7.32
2022-10-06T00:46:20.043Z,6.55
2022-10-06T00:48:51.116Z,8.45
2022-10-06T00:51:19.668Z,8.68
2022-10-06T00:53:46.159Z,9.20
2022-10-06T00:56:12.927Z,8.55
2022-10-06T00:58:39.412Z,8.07
2022-10-06T01:01:07.328Z,9.63
2022-10-06T01:03:39.275Z,9.00
2022-10-06T01:06:06.631Z,8.45
2022-10-06T01:08:34.716Z,12.68
2022-10-06T01:11:02.087Z,6.80
2022-10-06T01:13:30.574Z,11.30
2022-10-06T01:16:17.910Z,7.78
2022-10-06T01:18:47.180Z,8.25
2022-10-06T01:21:46.467Z,11.45
2022-10-06T01:24:13.430Z,6.95
2022-10-06T01:26:44.947Z,9.80
2022-10-06T01:29:12.595Z,10.23
2022-10-06T01:31:39.836Z,10.77
2022-10-06T01:34:06.488Z,5.97
2022-10-06T01:36:32.971Z,8.57
2022-10-06T01:38:59.499Z,7.10
2022-10-06T01:41:27.711Z,9.38
2022-10-06T01:43:55.155Z,5.72
2022-10-06T01:46:21.789Z,7.05
2022-10-06T01:48:48.320Z,7.32
2022-10-06T01:51:16.242Z,5.97
2022-10-06T01:53:42.828Z,7.68
2022-10-06T01:56:09.723Z,9.88
2022-10-06T01:58:36.322Z,6.53
2022-10-06T02:01:07.625Z,7.30
2022-10-06T02:03:37.512Z,7.03
2022-10-06T02:06:04.623Z,7.35
2022-10-06T02:08:32.366Z,8.38
2022-10-06T02:11:11.921Z,9.23
2022-10-06T02:13:41.720Z,7.47
2022-10-06T02:16:09.107Z,8.30
2022-10-06T02:18:36.315Z,11.25
2022-10-06T02:21:03.977Z,5.60
2022-10-06T02:23:30.918Z,7.47
2022-10-06T02:26:02.639Z,8.25
2022-10-06T02:31:02.238Z,9.88
2022-10-06T02:33:28.996Z,9.07
2022-10-06T02:35:56.234Z,8.95
2022-10-06T02:38:24.499Z,8.95
2022-10-06T02:40:51.468Z,9.50
2022-10-06T02:43:18.036Z,11.35
2022-10-06T02:45:44.514Z,11.48
2022-10-06T02:48:12.158Z,14.13
2022-10-06T02:50:38.872Z,8.50
2022-10-06T02:53:08.517Z,10.23
2022-10-06T02:55:35.801Z,9.55
2022-10-06T02:58:03.488Z,6.78
2022-10-06T03:00:30.037Z,8.77
2022-10-06T03:02:56.598Z,7.57
2022-10-06T03:05:23.163Z,8.93
2022-10-06T03:07:49.656Z,8.13
2022-10-06T03:10:16.745Z,8.00
2022-10-06T03:12:43.274Z,8.32
2022-10-06T03:15:09.954Z,7.80
2022-10-06T03:17:36.461Z,9.23
2022-10-06T03:20:04.208Z,8.75
2022-10-06T03:22:32.332Z,9.05
2022-10-06T03:24:59.340Z,9.38
2022-10-06T03:27:26.261Z,9.77
2022-10-06T03:29:56.705Z,11.30
2022-10-06T03:32:25.199Z,12.05
2022-10-06T03:34:53.298Z,7.28
2022-10-06T03:37:19.992Z,10.38
2022-10-06T03:39:46.639Z,11.68
2022-10-06T03:42:13.384Z,9.27
2022-10-06T03:44:39.947Z,10.23
2022-10-06T03:47:06.800Z,12.43
2022-10-06T03:49:34.001Z,9.25
2022-10-06T03:52:00.567Z,7.03
2022-10-06T03:54:31.214Z,8.70
2022-10-06T03:56:57.794Z,9.50
2022-10-06T03:59:24.325Z,10.40
2022-10-06T04:01:52.827Z,10.48
2022-10-06T04:04:24.673Z,10.07
2022-10-06T04:06:55.463Z,8.30
2022-10-06T04:09:22.022Z,8.85
2022-10-06T04:11:48.825Z,11.55
2022-10-06T04:14:16.554Z,14.20
2022-10-06T04:16:49.751Z,10.98
2022-10-06T04:19:21.433Z,14.27
2022-10-06T04:21:50.903Z,9.80
2022-10-06T04:24:24.824Z,9.23
2022-10-06T04:26:52.348Z,8.00
2022-10-06T04:29:20.450Z,11.60
2022-10-06T04:31:51.684Z,8.75
2022-10-06T04:34:24.379Z,10.52
2022-10-06T04:36:51.248Z,9.10
2022-10-06T04:39:18.753Z,13.50
2022-10-06T04:41:47.196Z,11.68
2022-10-06T04:44:19.115Z,12.95
2022-10-06T04:46:46.510Z,7.68
2022-10-06T04:49:19.571Z,10.85
2022-10-06T04:51:51.050Z,10.45
2022-10-06T04:54:18.971Z,10.10
2022-10-06T04:56:47.577Z,8.48
2022-10-06T04:59:16.042Z,13.15
2022-10-06T05:01:44.145Z,16.10
2022-10-06T05:04:13.006Z,8.50
2022-10-06T05:06:41.489Z,11.07
2022-10-06T05:09:11.508Z,16.10
2022-10-06T05:11:40.904Z,13.63
2022-10-06T05:14:10.359Z,13.27
2022-10-06T05:16:40.248Z,11.55
2022-10-06T05:19:08.197Z,11.80
2022-10-06T05:21:37.220Z,9.70
2022-10-06T05:24:03.967Z,10.55
2022-10-06T05:26:33.956Z,10.13
2022-10-06T05:29:02.056Z,12.75
2022-10-06T05:31:31.683Z,11.35
2022-10-06T05:34:00.470Z,13.82
2022-10-06T05:36:30.531Z,12.98
2022-10-06T05:38:58.342Z,12.10
2022-10-06T05:41:28.814Z,15.20
2022-10-06T05:43:58.193Z,13.63
2022-10-06T05:46:28.307Z,11.77
2022-10-06T05:48:58.553Z,10.55
2022-10-06T05:51:31.149Z,12.25
2022-10-06T05:54:00.256Z,15.80
2022-10-06T05:56:29.761Z,14.73
2022-10-06T05:58:57.944Z,13.77
2022-10-06T06:01:28.089Z,12.13
2022-10-06T06:04:01.227Z,14.32
2022-10-06T06:06:45.755Z,14.13
2022-10-06T06:09:20.622Z,16.52
2022-10-06T06:11:52.830Z,14.13
2022-10-06T06:14:44.888Z,12.18
2022-10-06T06:17:16.443Z,11.75
2022-10-06T06:19:42.903Z,12.43
2022-10-06T06:22:09.667Z,12.77
2022-10-06T06:24:39.163Z,14.45
2022-10-06T06:27:05.765Z,12.07
2022-10-06T06:29:32.327Z,14.40
2022-10-06T06:31:59.292Z,12.93
2022-10-06T06:34:26.892Z,16.73
2022-10-06T06:36:55.099Z,16.15
2022-10-06T06:39:21.620Z,13.15
2022-10-06T06:41:49.994Z,11.68
2022-10-06T06:44:35.430Z,11.88
2022-10-06T06:47:05.694Z,14.80
2022-10-06T06:49:32.345Z,14.02
2022-10-06T06:52:04.653Z,16.97
2022-10-06T06:54:33.330Z,16.63
2022-10-06T06:57:08.104Z,16.27
2022-10-06T06:59:34.631Z,17.52
2022-10-06T07:02:01.620Z,15.68
2022-10-06T07:04:32.782Z,14.38
2022-10-06T07:06:59.778Z,12.70
2022-10-06T07:09:29.561Z,17.30
2022-10-06T07:12:02.964Z,17.13
2022-10-06T07:14:29.925Z,13.23
2022-10-06T07:17:15.011Z,16.10
2022-10-06T07:20:04.880Z,13.95
2022-10-06T07:22:50.923Z,13.38
2022-10-06T07:25:26.327Z,15.80
2022-10-06T07:27:59.153Z,16.98
2022-10-06T07:30:35.053Z,9.85
2022-10-06T07:33:14.615Z,14.65
2022-10-06T07:35:43.110Z,13.20
2022-10-06T07:38:10.954Z,16.45
2022-10-06T07:40:46.389Z,18.25
2022-10-06T07:43:22.532Z,13.20
2022-10-06T07:45:50.207Z,13.05
2022-10-06T07:48:36.951Z,17.02
2022-10-06T07:51:10.788Z,15.63
2022-10-06T07:53:38.902Z,10.45
2022-10-06T07:56:15.629Z,16.02
2022-10-06T07:58:47.576Z,15.40
2022-10-06T08:01:16.508Z,14.60
2022-10-06T08:03:45.628Z,14.15
2022-10-06T08:06:15.573Z,15.93
2022-10-06T08:08:44.139Z,13.80
2022-10-06T08:11:11.775Z,13.45
2022-10-06T08:13:40.598Z,13.80
2022-10-06T08:16:34.360Z,11.27
2022-10-06T08:19:00.954Z,12.38
2022-10-06T08:21:30.110Z,11.73
2022-10-06T08:23:58.452Z,17.30
2022-10-06T08:26:27.052Z,14.35
2022-10-06T08:28:59.688Z,14.02
2022-10-06T08:31:26.220Z,11.30
2022-10-06T08:33:56.998Z,12.40
2022-10-06T08:36:31.034Z,13.07
2022-10-06T08:38:58.236Z,15.77
2022-10-06T08:41:28.226Z,12.45
2022-10-06T08:43:59.093Z,15.13
2022-10-06T08:46:32.606Z,13.87
2022-10-06T08:48:59.089Z,15.13
2022-10-06T08:51:54.652Z,15.23
2022-10-06T08:54:52.127Z,11.10
2022-10-06T08:57:56.166Z,15.48
2022-10-06T09:00:22.802Z,13.85
2022-10-06T09:02:50.669Z,12.68
2022-10-06T09:05:25.561Z,11.52
2022-10-06T09:08:29.800Z,15.23
2022-10-06T09:11:33.932Z,15.05
2022-10-06T09:14:26.774Z,12.23
2022-10-06T09:17:00.645Z,10.35
2022-10-06T09:19:43.289Z,13.20
2022-10-06T09:22:19.842Z,13.80
2022-10-06T09:24:50.429Z,11.30
2022-10-06T09:27:26.595Z,9.35
2022-10-06T09:29:53.440Z,13.77
2022-10-06T09:32:22.721Z,13.60
2022-10-06T09:34:59.505Z,9.70
2022-10-06T09:37:27.081Z,12.02
2022-10-06T09:39:54.689Z,13.27
2022-10-06T09:42:29.620Z,11.52
2022-10-06T09:45:00.400Z,11.95
2022-10-06T09:47:32.432Z,13.07
2022-10-06T09:50:26.325Z,12.52
2022-10-06T09:53:00.321Z,12.30
2022-10-06T09:55:31.196Z,9.57
2022-10-06T09:57:57.956Z,12.77
2022-10-06T10:00:36.142Z,9.65
2022-10-06T10:03:09.096Z,13.98
2022-10-06T10:05:39.183Z,8.25
2022-10-06T10:08:14.534Z,8.77
2022-10-06T10:10:41.334Z,9.00
2022-10-06T10:13:25.657Z,10.63
2022-10-06T10:16:02.739Z,11.30
2022-10-06T10:18:31.447Z,14.23
2022-10-06T10:21:00.393Z,12.43
2022-10-06T10:23:31.916Z,10.65
2022-10-06T10:26:27.002Z,10.27
2022-10-06T10:29:43.418Z,11.75
2022-10-06T10:32:40.200Z,10.40
2022-10-06T10:35:34.111Z,8.27
2022-10-06T10:38:19.987Z,11.07
2022-10-06T10:40:51.550Z,12.55
2022-10-06T10:43:47.845Z,13.32
2022-10-06T10:46:34.567Z,9.80
2022-10-06T10:49:12.652Z,13.45
2022-10-06T10:52:02.354Z,8.45
2022-10-06T10:54:40.985Z,7.32
2022-10-06T10:57:13.884Z,10.85
2022-10-06T11:00:00.529Z,10.73
2022-10-06T11:02:28.331Z,8.70
2022-10-06T11:05:02.801Z,8.80
2022-10-06T11:07:58.308Z,10.27
2022-10-06T11:10:31.062Z,10.23
2022-10-06T11:13:15.934Z,8.60
2022-10-06T11:16:00.298Z,8.93
2022-10-06T11:18:26.758Z,7.88
2022-10-06T11:21:00.906Z,9.63
2022-10-06T11:23:45.269Z,8.50
2022-10-06T11:26:40.920Z,7.88
2022-10-06T11:29:30.708Z,6.88
2022-10-06T11:32:13.284Z,7.88
2022-10-06T11:34:41.361Z,7.65
2022-10-06T11:37:38.274Z,6.22
2022-10-06T11:40:25.586Z,8.23
2022-10-06T11:43:04.477Z,7.68
2022-10-06T11:45:44.702Z,9.10
2022-10-06T11:48:29.753Z,8.65
2022-10-06T11:51:17.179Z,7.68
2022-10-06T11:53:44.758Z,9.98
2022-10-06T11:56:16.976Z,6.72
2022-10-06T11:58:55.656Z,6.82
2022-10-06T12:01:31.292Z,7.10
2022-10-06T12:04:10.023Z,7.40
2022-10-06T12:06:42.649Z,7.15
2022-10-06T12:09:30.972Z,5.43
2022-10-06T12:12:17.718Z,7.70
2022-10-06T12:18:17.259Z,7.30
2022-10-06T12:20:55.918Z,7.72
2022-10-06T12:23:40.616Z,10.13
2022-10-06T12:26:25.742Z,8.65
2022-10-06T12:29:20.112Z,7.80
2022-10-06T12:31:53.488Z,8.88
2022-10-06T12:34:57.701Z,6.05
2022-10-06T12:37:33.393Z,7.43
2022-10-06T12:40:37.478Z,5.72
2022-10-06T12:43:18.942Z,9.10
2022-10-06T12:46:16.301Z,6.97
2022-10-06T12:49:07.429Z,8.30
2022-10-06T12:51:39.102Z,5.90
2022-10-06T12:54:11.522Z,6.00
2022-10-06T12:56:42.812Z,6.50
2022-10-06T12:59:33.599Z,7.15
2022-10-06T13:02:04.721Z,6.43
2022-10-06T13:04:42.914Z,6.47
2022-10-06T13:07:25.209Z,7.90
2022-10-06T13:10:16.560Z,6.28
2022-10-06T13:12:50.076Z,5.35
2022-10-06T13:15:24.923Z,6.63
2022-10-06T13:18:10.324Z,5.85
2022-10-06T13:20:43.283Z,6.20
2022-10-06T13:23:28.057Z,6.20
2022-10-06T13:25:58.153Z,5.05
2022-10-06T13:28:29.230Z,6.97
2022-10-06T13:33:37.121Z,5.65
2022-10-06T13:36:03.966Z,5.70
2022-10-06T13:38:34.827Z,7.15
2022-10-06T13:41:17.470Z,5.45
2022-10-06T13:43:57.649Z,7.07
2022-10-06T13:46:27.862Z,7.40
2022-10-06T13:49:03.293Z,6.82
2022-10-06T13:51:32.136Z,6.30
2022-10-06T13:54:01.270Z,6.68
2022-10-06T13:59:32.354Z,6.13
2022-10-06T14:02:21.613Z,5.18
2022-10-06T14:05:18.814Z,5.07
2022-10-06T14:07:45.757Z,6.05
2022-10-06T14:10:22.912Z,6.13
2022-10-06T14:12:49.555Z,5.82
2022-10-06T14:15:21.579Z,5.70
2022-10-06T14:17:57.801Z,6.60
2022-10-06T14:20:37.715Z,6.10
2022-10-06T14:23:40.511Z,9.07
2022-10-06T14:26:08.173Z,6.15
2022-10-06T14:28:34.799Z,6.75
2022-10-06T14:31:01.401Z,5.35
2022-10-06T14:33:27.913Z,5.15
2022-10-06T14:35:54.504Z,5.20
2022-10-06T14:38:21.172Z,5.22
2022-10-06T14:40:47.627Z,6.53
2022-10-06T14:43:14.457Z,6.97
2022-10-06T14:45:42.308Z,8.10
2022-10-06T14:48:09.509Z,6.40
2022-10-06T14:50:36.092Z,6.18
2022-10-06T14:53:02.595Z,7.13
2022-10-06T14:55:30.848Z,6.47
2022-10-06T14:57:57.737Z,6.15
2022-10-06T15:00:24.493Z,5.80
2022-10-06T15:02:51.078Z,7.13
2022-10-06T15:05:17.704Z,7.75
2022-10-06T15:08:02.735Z,6.90
2022-10-06T15:10:30.182Z,7.80
2022-10-06T15:12:57.058Z,6.72
2022-10-06T15:15:24.175Z,6.82
2022-10-06T15:17:50.667Z,6.70
2022-10-06T15:20:17.251Z,6.78
2022-10-06T15:22:44.242Z,7.63
2022-10-06T15:25:33.709Z,6.80
2022-10-06T15:28:21.334Z,6.20
2022-10-06T15:30:50.315Z,6.78
2022-10-06T15:33:17.144Z,6.45
2022-10-06T15:36:00.419Z,6.78
2022-10-06T15:38:27.519Z,9.48
2022-10-06T15:41:02.871Z,6.38
2022-10-06T15:43:51.503Z,7.28
2022-10-06T15:46:18.261Z,5.75
2022-10-06T15:48:44.853Z,6.60
2022-10-06T15:51:11.405Z,6.30
2022-10-06T15:53:37.897Z,8.18
2022-10-06T15:56:04.765Z,6.80
2022-10-06T15:58:31.215Z,7.32
2022-10-06T16:00:57.682Z,6.60
2022-10-06T16:03:40.791Z,7.22
2022-10-06T16:06:09.040Z,10.65
2022-10-06T16:08:35.977Z,7.38
2022-10-06T16:11:02.888Z,6.45
2022-10-06T16:13:29.395Z,9.45
2022-10-06T16:15:57.146Z,8.52
2022-10-06T16:18:23.787Z,7.30
2022-10-06T16:20:54.407Z,8.10
2022-10-06T16:23:22.403Z,8.70
2022-10-06T16:25:49.565Z,12.05
2022-10-06T16:28:16.235Z,6.47
2022-10-06T16:30:42.837Z,7.32
2022-10-06T16:33:09.360Z,7.00
2022-10-06T16:35:35.877Z,7.53
2022-10-06T16:38:02.344Z,8.52
2022-10-06T16:40:29.220Z,8.35
2022-10-06T16:42:55.755Z,8.77
2022-10-06T16:45:22.217Z,11.32
2022-10-06T16:47:48.922Z,9.82
2022-10-06T16:50:15.521Z,7.30
2022-10-06T16:52:41.974Z,7.28
2022-10-06T16:55:09.437Z,7.68
2022-10-06T16:57:35.905Z,7.13
2022-10-06T17:00:05.658Z,10.73
2022-10-06T17:02:33.903Z,8.52
2022-10-06T17:05:00.390Z,9.90
2022-10-06T17:07:26.839Z,6.88
2022-10-06T17:10:18.525Z,7.53
2022-10-06T17:12:40.337Z,7.03
2022-10-06T17:15:07.392Z,11.82
2022-10-06T17:17:33.839Z,6.22
2022-10-06T17:20:00.281Z,8.68
2022-10-06T17:22:26.749Z,10.25
2022-10-06T17:24:53.277Z,9.32
2022-10-06T17:27:20.309Z,11.02
2022-10-06T17:29:46.761Z,7.65
2022-10-06T17:32:15.119Z,9.85
2022-10-06T17:34:41.637Z,7.63
2022-10-06T17:37:08.100Z,9.07
2022-10-06T17:39:34.639Z,7.15
2022-10-06T17:42:01.183Z,8.52
2022-10-06T17:44:29.401Z,8.20
2022-10-06T17:46:58.493Z,8.25
2022-10-06T17:49:26.457Z,7.50
2022-10-06T17:51:54.795Z,7.88
2022-10-06T17:54:23.803Z,6.57
2022-10-06T17:56:52.446Z,10.60
2022-10-06T17:59:22.170Z,9.52
2022-10-06T18:01:51.161Z,6.95
2022-10-06T18:04:18.789Z,7.47
2022-10-06T18:06:46.279Z,8.20
2022-10-06T18:09:13.531Z,8.80
2022-10-06T18:11:47.768Z,6.75
2022-10-06T18:14:16.626Z,8.65
2022-10-06T18:16:50.879Z,11.75
2022-10-06T18:19:24.181Z,7.60
2022-10-06T18:21:50.861Z,10.57
2022-10-06T18:24:20.937Z,8.05
2022-10-06T18:26:51.919Z,9.45
2022-10-06T18:29:21.938Z,6.93
2022-10-06T18:31:50.195Z,7.80
2022-10-06T18:35:57.712Z,8.68
2022-10-06T18:37:04.413Z,11.30
2022-10-06T18:39:31.939Z,7.40
2022-10-06T18:42:02.356Z,8.57
2022-10-06T18:44:47.728Z,6.25
2022-10-06T18:47:32.505Z,7.47
2022-10-06T18:49:58.992Z,10.23
2022-10-06T18:52:25.451Z,8.55
2022-10-06T18:54:51.907Z,7.15
2022-10-06T18:57:18.415Z,8.82
2022-10-06T18:59:45.007Z,6.47
2022-10-06T19:02:11.743Z,6.53
2022-10-06T19:04:41.071Z,6.53
2022-10-06T19:07:07.555Z,5.55
2022-10-06T19:09:34.036Z,7.03
2022-10-06T19:12:01.754Z,6.80
2022-10-06T19:14:35.486Z,8.35
2022-10-06T19:17:05.747Z,7.70
2022-10-06T19:19:32.535Z,9.15
2022-10-06T19:22:01.183Z,8.70
2022-10-06T19:24:36.431Z,7.40
2022-10-06T19:27:05.527Z,7.28
2022-10-06T19:29:36.888Z,6.05
2022-10-06T19:32:05.802Z,7.22
2022-10-06T19:34:37.221Z,8.57
2022-10-06T19:37:05.173Z,6.65
2022-10-06T19:39:37.934Z,6.32
2022-10-06T19:42:23.051Z,7.30
2022-10-06T19:44:49.516Z,7.55
2022-10-06T19:47:16.198Z,9.07
2022-10-06T19:49:43.163Z,7.35
2022-10-06T19:52:12.390Z,8.27
2022-10-06T19:54:39.620Z,7.25
2022-10-06T19:57:06.680Z,8.07
2022-10-06T19:59:33.332Z,10.82
2022-10-06T20:02:00.771Z,8.80
2022-10-06T20:04:27.366Z,9.38
2022-10-06T20:06:53.976Z,10.70
2022-10-06T20:09:22.908Z,9.30
2022-10-06T20:11:50.733Z,12.82
2022-10-06T20:14:21.234Z,10.63
2022-10-06T20:16:50.516Z,9.73
2022-10-06T20:19:18.410Z,11.48
2022-10-06T20:21:45.349Z,10.65
2022-10-06T20:24:18.031Z,9.48
2022-10-06T20:26:46.234Z,10.05
2022-10-06T20:29:14.621Z,10.35
2022-10-06T20:31:43.878Z,10.38
2022-10-06T20:34:14.616Z,10.48
2022-10-06T20:36:41.312Z,10.05
2022-10-06T20:39:29.600Z,8.55
2022-10-06T20:41:56.167Z,6.93
2022-10-06T20:44:22.711Z,8.30
2022-10-06T20:46:51.155Z,6.82
2022-10-06T20:49:17.962Z,8.77
2022-10-06T20:51:49.718Z,8.18
2022-10-06T20:56:43.805Z,7.10
2022-10-06T20:59:12.055Z,8.40
2022-10-06T21:01:41.775Z,7.10
2022-10-06T21:04:09.149Z,8.30
2022-10-06T21:06:40.086Z,9.82
2022-10-06T21:09:08.079Z,16.50
2022-10-06T21:11:34.802Z,10.85
2022-10-06T21:14:01.952Z,10.00
2022-10-06T21:16:34.471Z,9.30
2022-10-06T21:19:07.948Z,9.18
2022-10-06T21:21:50.258Z,10.90
2022-10-06T21:24:16.973Z,11.88
2022-10-06T21:26:43.611Z,8.38
2022-10-06T21:29:15.351Z,8.75
2022-10-06T21:31:43.170Z,6.95
2022-10-06T21:34:10.375Z,8.70
2022-10-06T21:36:37.260Z,8.73
2022-10-06T21:39:07.143Z,9.45
2022-10-06T21:41:38.809Z,10.70
2022-10-06T21:44:13.337Z,9.20
2022-10-06T21:46:46.968Z,8.85
2022-10-06T21:49:15.828Z,8.48
2022-10-06T21:51:45.564Z,9.65
2022-10-06T21:54:12.297Z,10.20
2022-10-06T21:56:39.921Z,8.60
2022-10-06T21:59:06.955Z,10.27
2022-10-06T22:01:35.719Z,9.65
2022-10-06T22:04:02.407Z,11.82
2022-10-06T22:06:31.063Z,8.73
2022-10-06T22:08:58.922Z,12.18
2022-10-06T22:11:31.807Z,9.65
2022-10-06T22:14:00.652Z,9.35
2022-10-06T22:16:30.388Z,9.15
2022-10-06T22:18:57.130Z,9.50
2022-10-06T22:21:29.826Z,9.93
2022-10-06T22:24:01.553Z,11.00
2022-10-06T22:28:57.420Z,9.10
2022-10-06T22:31:26.303Z,9.23
2022-10-06T22:33:58.169Z,10.68
2022-10-06T22:36:25.713Z,9.30
2022-10-06T22:38:52.625Z,12.07
2022-10-06T22:41:19.307Z,10.23
2022-10-06T22:43:45.862Z,9.52
2022-10-06T22:46:13.492Z,9.25
2022-10-06T22:48:40.464Z,10.55
2022-10-06T22:51:06.991Z,13.88
2022-10-06T22:53:33.939Z,9.55
2022-10-06T22:56:02.014Z,10.48
2022-10-06T22:58:28.902Z,11.10
2022-10-06T23:00:55.475Z,11.98
2022-10-06T23:03:22.218Z,9.20
2022-10-06T23:05:59.872Z,9.38
2022-10-06T23:08:30.173Z,9.93
2022-10-06T23:11:08.216Z,12.77
2022-10-06T23:13:34.970Z,10.23
2022-10-06T23:16:07.356Z,12.60
2022-10-06T23:18:35.867Z,13.38
2022-10-06T23:21:07.417Z,10.05
2022-10-06T23:23:34.475Z,14.68
2022-10-06T23:26:10.714Z,13.25
2022-10-06T23:28:37.585Z,10.95
2022-10-06T23:31:05.946Z,10.15
2022-10-06T23:33:33.435Z,11.95
2022-10-06T23:36:02.019Z,10.77
2022-10-06T23:38:28.802Z,11.07
2022-10-06T23:40:55.775Z,12.23
2022-10-06T23:43:23.142Z,11.38
2022-10-06T23:45:50.204Z,10.82
2022-10-06T23:48:17.019Z,11.40
2022-10-06T23:50:43.506Z,12.25
2022-10-06T23:53:09.989Z,11.90
2022-10-06T23:55:36.462Z,11.00
2022-10-06T23:58:02.940Z,14.70
